sensor_id;sensor_type;location;lat;lon;timestamp;P1;durP1;ratioP1;P2;durP2;ratioP2
10277;SDS011;5184;51.376;7.148;2022-09-16T00:01:11;4.00;;;1.90;;
10277;SDS011;5184;51.376;7.148;2022-09-16T00:03:38;7.30;;;1.80;;
10277;SDS011;5184;51.376;7.148;2022-09-16T00:06:05;4.43;;;1.53;;
10277;SDS011;5184;51.376;7.148;2022-09-16T00:08:32;4.90;;;1.80;;
10277;SDS011;5184;51.376;7.148;2022-09-16T00:10:59;5.23;;;1.70;;
10277;SDS011;5184;51.376;7.148;2022-09-16T00:13:26;6.07;;;1.67;;
10277;SDS011;5184;51.376;7.148;2022-09-16T00:15:53;2.80;;;1.30;;
10277;SDS011;5184;51.376;7.148;2022-09-16T00:18:19;3.67;;;1.73;;
10277;SDS011;5184;51.376;7.148;2022-09-16T00:20:47;3.13;;;1.70;;
10277;SDS011;5184;51.376;7.148;2022-09-16T00:23:12;6.17;;;1.77;;
10277;SDS011;5184;51.376;7.148;2022-09-16T00:25:39;3.97;;;1.80;;
10277;SDS011;5184;51.376;7.148;2022-09-16T00:28:06;3.73;;;1.57;;
10277;SDS011;5184;51.376;7.148;2022-09-16T00:30:32;4.47;;;1.87;;
10277;SDS011;5184;51.376;7.148;2022-09-16T00:32:59;3.37;;;1.47;;
10277;SDS011;5184;51.376;7.148;2022-09-16T00:35:25;4.87;;;1.70;;
10277;SDS011;5184;51.376;7.148;2022-09-16T00:37:52;2.80;;;1.50;;
10277;SDS011;5184;51.376;7.148;2022-09-16T00:40:19;3.43;;;1.83;;
10277;SDS011;5184;51.376;7.148;2022-09-16T00:42:45;3.27;;;1.67;;
10277;SDS011;5184;51.376;7.148;2022-09-16T00:45:15;7.13;;;2.10;;
10277;SDS011;5184;51.376;7.148;2022-09-16T00:47:43;4.77;;;1.83;;
10277;SDS011;5184;51.376;7.148;2022-09-16T00:50:21;4.50;;;1.80;;
10277;SDS011;5184;51.376;7.148;2022-09-16T00:52:52;5.80;;;2.00;;
10277;SDS011;5184;51.376;7.148;2022-09-16T00:55:20;2.77;;;1.60;;
10277;SDS011;5184;51.376;7.148;2022-09-16T00:57:47;5.43;;;1.97;;
10277;SDS011;5184;51.376;7.148;2022-09-16T01:00:14;4.77;;;2.10;;
10277;SDS011;5184;51.376;7.148;2022-09-16T01:02:41;5.33;;;2.23;;
10277;SDS011;5184;51.376;7.148;2022-09-16T01:05:09;4.23;;;1.90;;
10277;SDS011;5184;51.376;7.148;2022-09-16T01:07:37;5.90;;;2.23;;
10277;SDS011;5184;51.376;7.148;2022-09-16T01:10:06;4.43;;;1.97;;
10277;SDS011;5184;51.376;7.148;2022-09-16T01:12:33;5.73;;;2.10;;
10277;SDS011;5184;51.376;7.148;2022-09-16T01:15:00;7.10;;;2.10;;
10277;SDS011;5184;51.376;7.148;2022-09-16T01:17:32;7.13;;;2.20;;
10277;SDS011;5184;51.376;7.148;2022-09-16T01:23:59;7.07;;;1.90;;
10277;SDS011;5184;51.376;7.148;2022-09-16T01:25:48;5.20;;;2.00;;
10277;SDS011;5184;51.376;7.148;2022-09-16T01:28:47;6.30;;;2.00;;
10277;SDS011;5184;51.376;7.148;2022-09-16T01:33:33;5.73;;;1.90;;
10277;SDS011;5184;51.376;7.148;2022-09-16T01:36:11;3.27;;;1.90;;
10277;SDS011;5184;51.376;7.148;2022-09-16T01:38:47;4.27;;;1.90;;
10277;SDS011;5184;51.376;7.148;2022-09-16T01:41:16;4.53;;;2.10;;
10277;SDS011;5184;51.376;7.148;2022-09-16T01:43:42;5.17;;;2.40;;
10277;SDS011;5184;51.376;7.148;2022-09-16T01:46:11;5.93;;;1.90;;
10277;SDS011;5184;51.376;7.148;2022-09-16T01:48:36;4.40;;;2.20;;
10277;SDS011;5184;51.376;7.148;2022-09-16T01:51:17;3.70;;;1.87;;
10277;SDS011;5184;51.376;7.148;2022-09-16T01:53:43;4.77;;;2.10;;
10277;SDS011;5184;51.376;7.148;2022-09-16T01:56:08;5.33;;;1.70;;
10277;SDS011;5184;51.376;7.148;2022-09-16T01:58:41;6.40;;;1.93;;
10277;SDS011;5184;51.376;7.148;2022-09-16T02:01:12;5.17;;;2.00;;
10277;SDS011;5184;51.376;7.148;2022-09-16T02:03:38;5.77;;;1.80;;
10277;SDS011;5184;51.376;7.148;2022-09-16T02:06:05;4.33;;;1.80;;
10277;SDS011;5184;51.376;7.148;2022-09-16T02:08:41;4.60;;;1.77;;
10277;SDS011;5184;51.376;7.148;2022-09-16T02:11:07;3.97;;;1.63;;
10277;SDS011;5184;51.376;7.148;2022-09-16T02:13:36;5.23;;;1.80;;
10277;SDS011;5184;51.376;7.148;2022-09-16T02:16:04;6.20;;;2.43;;
10277;SDS011;5184;51.376;7.148;2022-09-16T02:18:32;5.37;;;2.50;;
10277;SDS011;5184;51.376;7.148;2022-09-16T02:20:57;4.70;;;2.30;;
10277;SDS011;5184;51.376;7.148;2022-09-16T02:23:24;5.43;;;2.30;;
10277;SDS011;5184;51.376;7.148;2022-09-16T02:25:52;5.73;;;2.33;;
10277;SDS011;5184;51.376;7.148;2022-09-16T02:28:21;8.07;;;2.17;;
10277;SDS011;5184;51.376;7.148;2022-09-16T02:30:48;4.43;;;1.90;;
10277;SDS011;5184;51.376;7.148;2022-09-16T02:33:13;5.97;;;2.47;;
10277;SDS011;5184;51.376;7.148;2022-09-16T02:35:40;4.67;;;2.27;;
10277;SDS011;5184;51.376;7.148;2022-09-16T02:38:08;6.43;;;1.80;;
10277;SDS011;5184;51.376;7.148;2022-09-16T02:40:34;4.60;;;1.90;;
10277;SDS011;5184;51.376;7.148;2022-09-16T02:43:00;5.47;;;2.10;;
10277;SDS011;5184;51.376;7.148;2022-09-16T02:45:32;5.83;;;2.07;;
10277;SDS011;5184;51.376;7.148;2022-09-16T02:48:01;4.10;;;2.00;;
10277;SDS011;5184;51.376;7.148;2022-09-16T02:51:38;5.73;;;1.90;;
10277;SDS011;5184;51.376;7.148;2022-09-16T02:53:15;3.10;;;1.63;;
10277;SDS011;5184;51.376;7.148;2022-09-16T02:55:44;4.20;;;1.70;;
10277;SDS011;5184;51.376;7.148;2022-09-16T02:58:08;3.53;;;1.87;;
10277;SDS011;5184;51.376;7.148;2022-09-16T03:00:35;3.07;;;1.57;;
10277;SDS011;5184;51.376;7.148;2022-09-16T03:03:00;3.87;;;1.73;;
10277;SDS011;5184;51.376;7.148;2022-09-16T03:05:28;3.50;;;1.60;;
10277;SDS011;5184;51.376;7.148;2022-09-16T03:07:54;9.10;;;2.00;;
10277;SDS011;5184;51.376;7.148;2022-09-16T03:10:22;7.97;;;1.90;;
10277;SDS011;5184;51.376;7.148;2022-09-16T03:12:55;5.23;;;1.70;;
10277;SDS011;5184;51.376;7.148;2022-09-16T03:15:46;2.43;;;1.57;;
10277;SDS011;5184;51.376;7.148;2022-09-16T03:18:16;3.43;;;1.77;;
10277;SDS011;5184;51.376;7.148;2022-09-16T03:20:50;3.70;;;1.70;;
10277;SDS011;5184;51.376;7.148;2022-09-16T03:23:25;3.37;;;1.70;;
10277;SDS011;5184;51.376;7.148;2022-09-16T03:25:56;4.27;;;1.83;;
10277;SDS011;5184;51.376;7.148;2022-09-16T03:28:44;5.00;;;1.80;;
10277;SDS011;5184;51.376;7.148;2022-09-16T03:31:16;4.60;;;2.03;;
10277;SDS011;5184;51.376;7.148;2022-09-16T03:33:46;4.83;;;2.30;;
10277;SDS011;5184;51.376;7.148;2022-09-16T03:36:13;4.47;;;1.90;;
10277;SDS011;5184;51.376;7.148;2022-09-16T03:38:40;5.77;;;2.50;;
10277;SDS011;5184;51.376;7.148;2022-09-16T03:41:07;5.47;;;2.10;;
10277;SDS011;5184;51.376;7.148;2022-09-16T03:43:35;3.97;;;1.93;;
10277;SDS011;5184;51.376;7.148;2022-09-16T03:46:01;5.13;;;2.23;;
10277;SDS011;5184;51.376;7.148;2022-09-16T03:48:28;4.80;;;1.90;;
10277;SDS011;5184;51.376;7.148;2022-09-16T03:50:54;4.60;;;1.60;;
10277;SDS011;5184;51.376;7.148;2022-09-16T03:53:21;5.33;;;1.70;;
10277;SDS011;5184;51.376;7.148;2022-09-16T03:55:48;6.27;;;2.60;;
10277;SDS011;5184;51.376;7.148;2022-09-16T03:58:15;5.70;;;2.27;;
10277;SDS011;5184;51.376;7.148;2022-09-16T04:00:44;4.87;;;2.40;;
10277;SDS011;5184;51.376;7.148;2022-09-16T04:03:10;6.37;;;2.20;;
10277;SDS011;5184;51.376;7.148;2022-09-16T04:05:36;7.20;;;2.23;;
10277;SDS011;5184;51.376;7.148;2022-09-16T04:08:03;6.10;;;2.30;;
10277;SDS011;5184;51.376;7.148;2022-09-16T04:10:29;6.07;;;2.20;;
10277;SDS011;5184;51.376;7.148;2022-09-16T04:12:56;6.57;;;2.00;;
10277;SDS011;5184;51.376;7.148;2022-09-16T04:15:22;8.00;;;2.73;;
10277;SDS011;5184;51.376;7.148;2022-09-16T04:17:50;5.33;;;2.20;;
10277;SDS011;5184;51.376;7.148;2022-09-16T04:20:17;4.13;;;2.23;;
10277;SDS011;5184;51.376;7.148;2022-09-16T04:22:45;3.83;;;2.10;;
10277;SDS011;5184;51.376;7.148;2022-09-16T04:25:12;5.50;;;2.20;;
10277;SDS011;5184;51.376;7.148;2022-09-16T04:27:39;5.17;;;2.17;;
10277;SDS011;5184;51.376;7.148;2022-09-16T04:30:05;4.43;;;2.20;;
10277;SDS011;5184;51.376;7.148;2022-09-16T04:32:33;6.77;;;2.07;;
10277;SDS011;5184;51.376;7.148;2022-09-16T04:35:00;5.27;;;2.03;;
10277;SDS011;5184;51.376;7.148;2022-09-16T04:37:28;8.17;;;1.80;;
10277;SDS011;5184;51.376;7.148;2022-09-16T04:39:54;4.47;;;1.90;;
10277;SDS011;5184;51.376;7.148;2022-09-16T04:42:20;5.60;;;2.33;;
10277;SDS011;5184;51.376;7.148;2022-09-16T04:44:47;3.93;;;1.83;;
10277;SDS011;5184;51.376;7.148;2022-09-16T04:47:14;6.77;;;1.90;;
10277;SDS011;5184;51.376;7.148;2022-09-16T04:49:40;5.50;;;2.10;;
10277;SDS011;5184;51.376;7.148;2022-09-16T04:52:08;4.60;;;2.00;;
10277;SDS011;5184;51.376;7.148;2022-09-16T04:54:35;7.57;;;2.10;;
10277;SDS011;5184;51.376;7.148;2022-09-16T04:57:02;5.37;;;2.10;;
10277;SDS011;5184;51.376;7.148;2022-09-16T04:59:30;6.33;;;2.23;;
10277;SDS011;5184;51.376;7.148;2022-09-16T05:01:56;2.40;;;1.93;;
10277;SDS011;5184;51.376;7.148;2022-09-16T05:04:23;7.30;;;2.27;;
10277;SDS011;5184;51.376;7.148;2022-09-16T05:06:49;7.97;;;2.40;;
10277;SDS011;5184;51.376;7.148;2022-09-16T05:09:16;5.33;;;1.93;;
10277;SDS011;5184;51.376;7.148;2022-09-16T05:11:43;5.50;;;2.30;;
10277;SDS011;5184;51.376;7.148;2022-09-16T05:14:12;6.63;;;2.40;;
10277;SDS011;5184;51.376;7.148;2022-09-16T05:16:36;6.57;;;2.13;;
10277;SDS011;5184;51.376;7.148;2022-09-16T05:19:03;6.80;;;2.83;;
10277;SDS011;5184;51.376;7.148;2022-09-16T05:21:32;5.77;;;2.30;;
10277;SDS011;5184;51.376;7.148;2022-09-16T05:23:59;3.73;;;1.90;;
10277;SDS011;5184;51.376;7.148;2022-09-16T05:26:26;7.33;;;2.53;;
10277;SDS011;5184;51.376;7.148;2022-09-16T05:28:51;4.00;;;2.27;;
10277;SDS011;5184;51.376;7.148;2022-09-16T05:31:19;7.77;;;2.60;;
10277;SDS011;5184;51.376;7.148;2022-09-16T05:33:45;6.40;;;2.40;;
10277;SDS011;5184;51.376;7.148;2022-09-16T05:36:13;6.07;;;2.33;;
10277;SDS011;5184;51.376;7.148;2022-09-16T05:38:38;4.77;;;2.13;;
10277;SDS011;5184;51.376;7.148;2022-09-16T05:41:05;5.37;;;2.37;;
10277;SDS011;5184;51.376;7.148;2022-09-16T05:43:32;6.27;;;2.50;;
10277;SDS011;5184;51.376;7.148;2022-09-16T05:45:58;3.80;;;2.20;;
10277;SDS011;5184;51.376;7.148;2022-09-16T05:48:25;6.87;;;2.60;;
10277;SDS011;5184;51.376;7.148;2022-09-16T05:50:59;5.60;;;2.27;;
10277;SDS011;5184;51.376;7.148;2022-09-16T05:53:26;6.00;;;2.20;;
10277;SDS011;5184;51.376;7.148;2022-09-16T05:55:58;4.93;;;2.03;;
10277;SDS011;5184;51.376;7.148;2022-09-16T05:58:25;4.60;;;2.00;;
10277;SDS011;5184;51.376;7.148;2022-09-16T06:00:51;6.23;;;2.07;;
10277;SDS011;5184;51.376;7.148;2022-09-16T06:03:18;3.77;;;2.10;;
10277;SDS011;5184;51.376;7.148;2022-09-16T06:05:46;4.47;;;1.90;;
10277;SDS011;5184;51.376;7.148;2022-09-16T06:08:12;4.50;;;2.07;;
10277;SDS011;5184;51.376;7.148;2022-09-16T06:10:39;4.73;;;2.43;;
10277;SDS011;5184;51.376;7.148;2022-09-16T06:13:05;4.93;;;1.83;;
10277;SDS011;5184;51.376;7.148;2022-09-16T06:15:32;5.23;;;2.40;;
10277;SDS011;5184;51.376;7.148;2022-09-16T06:18:00;4.17;;;2.30;;
10277;SDS011;5184;51.376;7.148;2022-09-16T06:20:27;6.40;;;2.70;;
10277;SDS011;5184;51.376;7.148;2022-09-16T06:22:54;6.67;;;2.93;;
10277;SDS011;5184;51.376;7.148;2022-09-16T06:25:21;5.50;;;3.20;;
10277;SDS011;5184;51.376;7.148;2022-09-16T06:27:47;5.43;;;3.10;;
10277;SDS011;5184;51.376;7.148;2022-09-16T06:30:14;6.37;;;3.43;;
10277;SDS011;5184;51.376;7.148;2022-09-16T06:32:41;6.77;;;3.20;;
10277;SDS011;5184;51.376;7.148;2022-09-16T06:35:08;7.10;;;3.20;;
10277;SDS011;5184;51.376;7.148;2022-09-16T06:37:34;6.70;;;3.87;;
10277;SDS011;5184;51.376;7.148;2022-09-16T06:40:01;6.10;;;4.17;;
10277;SDS011;5184;51.376;7.148;2022-09-16T06:42:28;9.53;;;4.53;;
10277;SDS011;5184;51.376;7.148;2022-09-16T06:44:54;7.20;;;3.87;;
10277;SDS011;5184;51.376;7.148;2022-09-16T06:47:22;8.00;;;4.30;;
10277;SDS011;5184;51.376;7.148;2022-09-16T06:49:49;6.93;;;4.40;;
10277;SDS011;5184;51.376;7.148;2022-09-16T06:52:16;9.03;;;5.07;;
10277;SDS011;5184;51.376;7.148;2022-09-16T06:54:44;8.33;;;4.47;;
10277;SDS011;5184;51.376;7.148;2022-09-16T06:57:11;8.23;;;5.10;;
10277;SDS011;5184;51.376;7.148;2022-09-16T06:59:38;6.67;;;4.60;;
10277;SDS011;5184;51.376;7.148;2022-09-16T07:02:04;7.20;;;4.73;;
10277;SDS011;5184;51.376;7.148;2022-09-16T07:04:31;7.67;;;5.23;;
10277;SDS011;5184;51.376;7.148;2022-09-16T07:06:57;9.57;;;5.83;;
10277;SDS011;5184;51.376;7.148;2022-09-16T07:09:24;9.50;;;7.20;;
10277;SDS011;5184;51.376;7.148;2022-09-16T07:11:51;11.90;;;7.40;;
10277;SDS011;5184;51.376;7.148;2022-09-16T07:14:19;7.47;;;6.10;;
10277;SDS011;5184;51.376;7.148;2022-09-16T07:16:46;10.40;;;6.73;;
10277;SDS011;5184;51.376;7.148;2022-09-16T07:19:13;11.73;;;6.90;;
10277;SDS011;5184;51.376;7.148;2022-09-16T07:21:40;8.57;;;6.10;;
10277;SDS011;5184;51.376;7.148;2022-09-16T07:24:08;8.60;;;5.80;;
10277;SDS011;5184;51.376;7.148;2022-09-16T07:26:35;9.10;;;6.03;;
10277;SDS011;5184;51.376;7.148;2022-09-16T07:29:03;7.10;;;5.37;;
10277;SDS011;5184;51.376;7.148;2022-09-16T07:31:30;6.83;;;5.23;;
10277;SDS011;5184;51.376;7.148;2022-09-16T07:33:57;8.03;;;4.90;;
10277;SDS011;5184;51.376;7.148;2022-09-16T07:36:25;8.07;;;5.20;;
10277;SDS011;5184;51.376;7.148;2022-09-16T07:38:50;7.93;;;5.03;;
10277;SDS011;5184;51.376;7.148;2022-09-16T07:41:20;7.47;;;4.53;;
10277;SDS011;5184;51.376;7.148;2022-09-16T07:43:45;5.80;;;4.33;;
10277;SDS011;5184;51.376;7.148;2022-09-16T07:46:11;6.20;;;4.20;;
10277;SDS011;5184;51.376;7.148;2022-09-16T07:48:37;8.13;;;4.10;;
10277;SDS011;5184;51.376;7.148;2022-09-16T07:51:06;7.63;;;4.30;;
10277;SDS011;5184;51.376;7.148;2022-09-16T07:53:32;4.70;;;3.77;;
10277;SDS011;5184;51.376;7.148;2022-09-16T07:56:05;5.57;;;3.70;;
10277;SDS011;5184;51.376;7.148;2022-09-16T07:58:31;6.20;;;3.90;;
10277;SDS011;5184;51.376;7.148;2022-09-16T08:00:59;8.13;;;3.67;;
10277;SDS011;5184;51.376;7.148;2022-09-16T08:03:26;4.87;;;3.30;;
10277;SDS011;5184;51.376;7.148;2022-09-16T08:05:52;4.67;;;2.83;;
10277;SDS011;5184;51.376;7.148;2022-09-16T08:08:19;5.00;;;3.20;;
10277;SDS011;5184;51.376;7.148;2022-09-16T08:10:51;5.40;;;2.90;;
10277;SDS011;5184;51.376;7.148;2022-09-16T08:13:12;7.93;;;3.07;;
10277;SDS011;5184;51.376;7.148;2022-09-16T08:15:39;4.83;;;3.10;;
10277;SDS011;5184;51.376;7.148;2022-09-16T08:18:06;5.47;;;3.00;;
10277;SDS011;5184;51.376;7.148;2022-09-16T08:20:35;5.60;;;3.13;;
10277;SDS011;5184;51.376;7.148;2022-09-16T08:22:59;4.90;;;3.63;;
10277;SDS011;5184;51.376;7.148;2022-09-16T08:25:26;6.67;;;4.30;;
10277;SDS011;5184;51.376;7.148;2022-09-16T08:27:52;8.13;;;5.50;;
10277;SDS011;5184;51.376;7.148;2022-09-16T08:30:19;6.30;;;4.83;;
10277;SDS011;5184;51.376;7.148;2022-09-16T08:32:46;6.77;;;5.00;;
10277;SDS011;5184;51.376;7.148;2022-09-16T08:35:12;8.03;;;6.13;;
10277;SDS011;5184;51.376;7.148;2022-09-16T08:37:40;9.37;;;7.00;;
10277;SDS011;5184;51.376;7.148;2022-09-16T08:40:06;7.70;;;6.50;;
10277;SDS011;5184;51.376;7.148;2022-09-16T08:42:38;8.23;;;6.97;;
10277;SDS011;5184;51.376;7.148;2022-09-16T08:45:08;7.37;;;6.63;;
10277;SDS011;5184;51.376;7.148;2022-09-16T08:47:39;7.77;;;5.73;;
10277;SDS011;5184;51.376;7.148;2022-09-16T08:50:04;7.97;;;5.97;;
10277;SDS011;5184;51.376;7.148;2022-09-16T08:52:32;11.30;;;5.90;;
10277;SDS011;5184;51.376;7.148;2022-09-16T08:55:01;9.27;;;5.97;;
10277;SDS011;5184;51.376;7.148;2022-09-16T08:57:39;8.03;;;6.20;;
10277;SDS011;5184;51.376;7.148;2022-09-16T09:00:06;10.33;;;6.37;;
10277;SDS011;5184;51.376;7.148;2022-09-16T09:02:39;8.73;;;6.20;;
10277;SDS011;5184;51.376;7.148;2022-09-16T09:05:13;8.83;;;6.13;;
10277;SDS011;5184;51.376;7.148;2022-09-16T09:07:58;9.50;;;6.07;;
10277;SDS011;5184;51.376;7.148;2022-09-16T09:10:24;6.40;;;5.43;;
10277;SDS011;5184;51.376;7.148;2022-09-16T09:12:56;7.20;;;5.60;;
10277;SDS011;5184;51.376;7.148;2022-09-16T09:15:25;7.60;;;5.20;;
10277;SDS011;5184;51.376;7.148;2022-09-16T09:17:54;5.10;;;4.60;;
10277;SDS011;5184;51.376;7.148;2022-09-16T09:20:29;7.60;;;4.67;;
10277;SDS011;5184;51.376;7.148;2022-09-16T09:23:03;5.50;;;3.90;;
10277;SDS011;5184;51.376;7.148;2022-09-16T09:25:29;7.77;;;4.37;;
10277;SDS011;5184;51.376;7.148;2022-09-16T09:28:15;4.30;;;3.77;;
10277;SDS011;5184;51.376;7.148;2022-09-16T09:30:57;5.83;;;3.90;;
10277;SDS011;5184;51.376;7.148;2022-09-16T09:36:03;3.90;;;3.33;;
10277;SDS011;5184;51.376;7.148;2022-09-16T09:41:26;4.97;;;3.40;;
10277;SDS011;5184;51.376;7.148;2022-09-16T09:43:55;10.67;;;3.53;;
10277;SDS011;5184;51.376;7.148;2022-09-16T09:49:07;3.27;;;2.83;;
10277;SDS011;5184;51.376;7.148;2022-09-16T09:51:31;5.30;;;3.10;;
10277;SDS011;5184;51.376;7.148;2022-09-16T09:53:59;4.03;;;2.90;;
10277;SDS011;5184;51.376;7.148;2022-09-16T09:56:28;6.90;;;3.10;;
10277;SDS011;5184;51.376;7.148;2022-09-16T09:58:57;5.47;;;3.30;;
10277;SDS011;5184;51.376;7.148;2022-09-16T10:01:25;5.37;;;3.60;;
10277;SDS011;5184;51.376;7.148;2022-09-16T10:03:51;5.00;;;3.00;;
10277;SDS011;5184;51.376;7.148;2022-09-16T10:06:23;6.20;;;2.40;;
10277;SDS011;5184;51.376;7.148;2022-09-16T10:08:49;6.50;;;2.50;;
10277;SDS011;5184;51.376;7.148;2022-09-16T10:11:18;4.07;;;2.17;;
10277;SDS011;5184;51.376;7.148;2022-09-16T10:13:49;4.57;;;2.03;;
10277;SDS011;5184;51.376;7.148;2022-09-16T10:16:18;3.53;;;1.80;;
10277;SDS011;5184;51.376;7.148;2022-09-16T10:18:43;2.93;;;1.47;;
10277;SDS011;5184;51.376;7.148;2022-09-16T10:21:10;4.17;;;1.87;;
10277;SDS011;5184;51.376;7.148;2022-09-16T10:23:37;3.47;;;1.50;;
10277;SDS011;5184;51.376;7.148;2022-09-16T10:26:15;3.83;;;1.00;;
10277;SDS011;5184;51.376;7.148;2022-09-16T10:28:53;2.87;;;1.20;;
10277;SDS011;5184;51.376;7.148;2022-09-16T10:31:19;4.27;;;1.33;;
10277;SDS011;5184;51.376;7.148;2022-09-16T10:33:46;3.87;;;1.30;;
10277;SDS011;5184;51.376;7.148;2022-09-16T10:36:19;2.73;;;1.20;;
10277;SDS011;5184;51.376;7.148;2022-09-16T10:38:47;3.80;;;1.20;;
10277;SDS011;5184;51.376;7.148;2022-09-16T10:41:14;5.60;;;1.50;;
10277;SDS011;5184;51.376;7.148;2022-09-16T10:43:45;4.43;;;1.23;;
10277;SDS011;5184;51.376;7.148;2022-09-16T10:46:16;8.60;;;1.63;;
10277;SDS011;5184;51.376;7.148;2022-09-16T10:48:43;3.83;;;1.50;;
10277;SDS011;5184;51.376;7.148;2022-09-16T10:53:51;2.03;;;1.17;;
10277;SDS011;5184;51.376;7.148;2022-09-16T10:56:19;4.50;;;1.37;;
10277;SDS011;5184;51.376;7.148;2022-09-16T10:58:45;3.57;;;1.00;;
10277;SDS011;5184;51.376;7.148;2022-09-16T11:01:19;2.43;;;0.90;;
10277;SDS011;5184;51.376;7.148;2022-09-16T11:03:54;3.60;;;1.10;;
10277;SDS011;5184;51.376;7.148;2022-09-16T11:06:22;5.10;;;1.37;;
10277;SDS011;5184;51.376;7.148;2022-09-16T11:08:51;2.73;;;0.83;;
10277;SDS011;5184;51.376;7.148;2022-09-16T11:13:51;2.53;;;1.03;;
10277;SDS011;5184;51.376;7.148;2022-09-16T11:16:21;3.80;;;1.03;;
10277;SDS011;5184;51.376;7.148;2022-09-16T11:18:59;3.27;;;1.17;;
10277;SDS011;5184;51.376;7.148;2022-09-16T11:21:32;3.13;;;1.07;;
10277;SDS011;5184;51.376;7.148;2022-09-16T11:24:13;3.10;;;1.10;;
10277;SDS011;5184;51.376;7.148;2022-09-16T11:26:44;5.57;;;1.40;;
10277;SDS011;5184;51.376;7.148;2022-09-16T11:33:04;3.03;;;1.10;;
10277;SDS011;5184;51.376;7.148;2022-09-16T11:34:59;1.90;;;0.90;;
10277;SDS011;5184;51.376;7.148;2022-09-16T11:37:39;3.47;;;1.40;;
10277;SDS011;5184;51.376;7.148;2022-09-16T11:40:10;2.53;;;1.20;;
10277;SDS011;5184;51.376;7.148;2022-09-16T11:42:50;3.87;;;1.33;;
10277;SDS011;5184;51.376;7.148;2022-09-16T11:45:21;3.70;;;1.00;;
10277;SDS011;5184;51.376;7.148;2022-09-16T11:47:51;3.17;;;1.10;;
10277;SDS011;5184;51.376;7.148;2022-09-16T11:50:33;3.17;;;1.07;;
10277;SDS011;5184;51.376;7.148;2022-09-16T11:53:05;7.00;;;1.33;;
10277;SDS011;5184;51.376;7.148;2022-09-16T11:55:41;2.47;;;1.07;;
10277;SDS011;5184;51.376;7.148;2022-09-16T12:00:53;3.23;;;1.63;;
10277;SDS011;5184;51.376;7.148;2022-09-16T12:05:52;4.37;;;2.10;;
10277;SDS011;5184;51.376;7.148;2022-09-16T12:08:21;7.80;;;4.27;;
10277;SDS011;5184;51.376;7.148;2022-09-16T12:10:50;9.47;;;6.47;;
10277;SDS011;5184;51.376;7.148;2022-09-16T12:13:17;4.77;;;3.10;;
10277;SDS011;5184;51.376;7.148;2022-09-16T12:15:44;11.40;;;6.50;;
10277;SDS011;5184;51.376;7.148;2022-09-16T12:18:30;9.47;;;3.50;;
10277;SDS011;5184;51.376;7.148;2022-09-16T12:21:33;5.50;;;3.40;;
10277;SDS011;5184;51.376;7.148;2022-09-16T12:23:44;5.63;;;3.30;;
10277;SDS011;5184;51.376;7.148;2022-09-16T12:26:13;3.73;;;1.50;;
10277;SDS011;5184;51.376;7.148;2022-09-16T12:28:50;4.93;;;2.50;;
10277;SDS011;5184;51.376;7.148;2022-09-16T12:31:20;4.37;;;2.07;;
10277;SDS011;5184;51.376;7.148;2022-09-16T12:34:03;4.30;;;1.10;;
10277;SDS011;5184;51.376;7.148;2022-09-16T12:36:31;1.63;;;0.97;;
10277;SDS011;5184;51.376;7.148;2022-09-16T12:38:57;2.47;;;1.60;;
10277;SDS011;5184;51.376;7.148;2022-09-16T12:41:28;4.33;;;2.50;;
10277;SDS011;5184;51.376;7.148;2022-09-16T12:47:21;3.10;;;2.10;;
10277;SDS011;5184;51.376;7.148;2022-09-16T12:49:59;7.03;;;2.80;;
10277;SDS011;5184;51.376;7.148;2022-09-16T12:52:34;5.90;;;2.30;;
10277;SDS011;5184;51.376;7.148;2022-09-16T12:55:22;6.97;;;2.80;;
10277;SDS011;5184;51.376;7.148;2022-09-16T13:00:42;3.50;;;2.23;;
10277;SDS011;5184;51.376;7.148;2022-09-16T13:03:14;3.53;;;1.50;;
10277;SDS011;5184;51.376;7.148;2022-09-16T13:05:39;4.00;;;1.60;;
10277;SDS011;5184;51.376;7.148;2022-09-16T13:08:15;5.37;;;1.80;;
10277;SDS011;5184;51.376;7.148;2022-09-16T13:10:34;5.57;;;1.43;;
10277;SDS011;5184;51.376;7.148;2022-09-16T13:13:00;4.13;;;1.60;;
10277;SDS011;5184;51.376;7.148;2022-09-16T13:15:37;3.77;;;1.50;;
10277;SDS011;5184;51.376;7.148;2022-09-16T13:18:08;2.70;;;1.80;;
10277;SDS011;5184;51.376;7.148;2022-09-16T13:20:55;4.33;;;1.63;;
10277;SDS011;5184;51.376;7.148;2022-09-16T13:23:22;4.87;;;2.07;;
10277;SDS011;5184;51.376;7.148;2022-09-16T13:26:04;4.50;;;1.90;;
10277;SDS011;5184;51.376;7.148;2022-09-16T13:28:35;3.67;;;1.80;;
10277;SDS011;5184;51.376;7.148;2022-09-16T13:33:45;3.73;;;1.53;;
10277;SDS011;5184;51.376;7.148;2022-09-16T13:36:26;3.90;;;1.50;;
10277;SDS011;5184;51.376;7.148;2022-09-16T13:38:44;3.67;;;1.37;;
10277;SDS011;5184;51.376;7.148;2022-09-16T13:41:11;3.57;;;1.03;;
10277;SDS011;5184;51.376;7.148;2022-09-16T13:46:27;1.73;;;1.00;;
10277;SDS011;5184;51.376;7.148;2022-09-16T13:48:57;3.17;;;1.00;;
10277;SDS011;5184;51.376;7.148;2022-09-16T13:51:23;1.97;;;0.93;;
10277;SDS011;5184;51.376;7.148;2022-09-16T13:53:50;2.37;;;0.97;;
10277;SDS011;5184;51.376;7.148;2022-09-16T13:56:56;4.47;;;1.10;;
10277;SDS011;5184;51.376;7.148;2022-09-16T14:02:13;3.83;;;0.90;;
10277;SDS011;5184;51.376;7.148;2022-09-16T14:04:59;1.97;;;1.07;;
10277;SDS011;5184;51.376;7.148;2022-09-16T14:09:59;3.57;;;1.00;;
10277;SDS011;5184;51.376;7.148;2022-09-16T14:12:35;2.63;;;0.97;;
10277;SDS011;5184;51.376;7.148;2022-09-16T14:15:18;2.03;;;1.20;;
10277;SDS011;5184;51.376;7.148;2022-09-16T14:17:46;1.50;;;1.10;;
10277;SDS011;5184;51.376;7.148;2022-09-16T14:20:13;4.43;;;1.40;;
10277;SDS011;5184;51.376;7.148;2022-09-16T14:22:38;4.73;;;1.10;;
10277;SDS011;5184;51.376;7.148;2022-09-16T14:25:23;3.10;;;1.10;;
10277;SDS011;5184;51.376;7.148;2022-09-16T14:27:32;2.80;;;1.30;;
10277;SDS011;5184;51.376;7.148;2022-09-16T14:30:00;1.80;;;1.10;;
10277;SDS011;5184;51.376;7.148;2022-09-16T14:32:26;4.70;;;1.40;;
10277;SDS011;5184;51.376;7.148;2022-09-16T14:34:52;3.73;;;1.50;;
10277;SDS011;5184;51.376;7.148;2022-09-16T14:37:18;4.13;;;1.80;;
10277;SDS011;5184;51.376;7.148;2022-09-16T14:39:45;3.07;;;1.47;;
10277;SDS011;5184;51.376;7.148;2022-09-16T14:42:15;2.43;;;1.50;;
10277;SDS011;5184;51.376;7.148;2022-09-16T14:44:41;4.00;;;1.70;;
10277;SDS011;5184;51.376;7.148;2022-09-16T14:47:14;3.83;;;1.60;;
10277;SDS011;5184;51.376;7.148;2022-09-16T14:49:41;2.47;;;1.80;;
10277;SDS011;5184;51.376;7.148;2022-09-16T14:54:43;2.77;;;1.50;;
10277;SDS011;5184;51.376;7.148;2022-09-16T14:57:13;4.13;;;1.80;;
10277;SDS011;5184;51.376;7.148;2022-09-16T14:59:39;4.40;;;1.57;;
10277;SDS011;5184;51.376;7.148;2022-09-16T15:04:42;3.73;;;1.77;;
10277;SDS011;5184;51.376;7.148;2022-09-16T15:07:11;3.00;;;1.70;;
10277;SDS011;5184;51.376;7.148;2022-09-16T15:09:44;2.50;;;1.40;;
10277;SDS011;5184;51.376;7.148;2022-09-16T15:12:14;3.10;;;1.70;;
10277;SDS011;5184;51.376;7.148;2022-09-16T15:14:36;2.97;;;1.90;;
10277;SDS011;5184;51.376;7.148;2022-09-16T15:17:01;2.17;;;1.33;;
10277;SDS011;5184;51.376;7.148;2022-09-16T15:19:30;2.17;;;1.30;;
10277;SDS011;5184;51.376;7.148;2022-09-16T15:21:56;2.23;;;1.00;;
10277;SDS011;5184;51.376;7.148;2022-09-16T15:24:26;1.50;;;1.10;;
10277;SDS011;5184;51.376;7.148;2022-09-16T15:26:52;2.60;;;1.20;;
10277;SDS011;5184;51.376;7.148;2022-09-16T15:29:26;2.00;;;1.00;;
10277;SDS011;5184;51.376;7.148;2022-09-16T15:31:52;4.27;;;1.30;;
10277;SDS011;5184;51.376;7.148;2022-09-16T15:34:20;3.03;;;1.30;;
10277;SDS011;5184;51.376;7.148;2022-09-16T15:36:47;3.97;;;1.30;;
10277;SDS011;5184;51.376;7.148;2022-09-16T15:39:21;2.77;;;1.40;;
10277;SDS011;5184;51.376;7.148;2022-09-16T15:44:29;3.90;;;1.50;;
10277;SDS011;5184;51.376;7.148;2022-09-16T15:46:57;3.13;;;1.17;;
10277;SDS011;5184;51.376;7.148;2022-09-16T15:49:24;4.30;;;1.43;;
10277;SDS011;5184;51.376;7.148;2022-09-16T15:51:51;3.47;;;1.23;;
10277;SDS011;5184;51.376;7.148;2022-09-16T15:54:20;4.37;;;1.40;;
10277;SDS011;5184;51.376;7.148;2022-09-16T15:56:49;5.17;;;1.40;;
10277;SDS011;5184;51.376;7.148;2022-09-16T15:59:23;3.77;;;1.40;;
10277;SDS011;5184;51.376;7.148;2022-09-16T16:01:48;2.70;;;1.10;;
10277;SDS011;5184;51.376;7.148;2022-09-16T16:04:20;4.87;;;1.30;;